Fort Wayne, IN (46802)

8:25 PM EST on February 08, 2016 (GMT -0500)
Hillegas Road, Ft.Wayne, IN | | Change Station
CLOSE
Current Station
Personal Weather Station
Location: Fort Wayne, IN
Elevation: 823 ft
Nearby Weather Stations
Active Advisory: Special Statement

Elev 823 ft 41.10 °N, 85.19 °W | Updated 9 minutes ago

Overcast
Overcast
29.1 °F
Feels Like 22 °F
N
6.8
Wind Variable Wind from SSW

Today
High -- | Low -- °F
--% Chance of Precip.
Yesterday
High -- | Low -- °F
Precip. -- in
Pressure 29.71 in
Visibility 5.0 miles
Clouds Overcast 600 ft
Windchill 22 °F
Dew Point 29 °F
Humidity 99%
Rainfall 0.00 in
Snow Depth Not available.
7:44 AM 6:05 PM
New Moon, 0% visible
METAR KFWA 090054Z 27014KT 5SM -SN BR OVC006 M02/M03 A2968 RMK AO2 CIG 005V009 SLP059 P0000 T10171028
Pressure 29.71 in
Visibility 5.0 miles
Clouds Overcast 600 ft
Windchill 22 °F
Dew Point 29 °F
Humidity 99%
Rainfall 0.00 in
Snow Depth Not available.
7:44 AM 6:05 PM
New Moon, 0% visible
METAR KFWA 090054Z 27014KT 5SM -SN BR OVC006 M02/M03 A2968 RMK AO2 CIG 005V009 SLP059 P0000 T10171028

10-Day Weather Forecast

Almanac

Astronomy

Feb. 08, 2016 Rise Set
Actual Time
Civil Twilight
Nautical Twilight
Astronomical Twilight
Moon
Length of Visible Light
Length of Day
Tomorrow will be .
, % of the Moon is Illuminated

Today's Extremes

State Highs State Lows

Community

WunderPhotos

Upload Photos

1,891,527 photos uploaded!

WunderBlog® & News

Nearby

Air Quality

  Air Quality AQ Index Pollutant
Not available.

Snow Depth

Station Depth Elevation

Earthquake Activity

City Distance Mag. Time & Date
Minimum magnitude displayed is 2.5.

Coastal Water Temperatures

Place Temperature

Stations

Nearby Weather Stations

Station Location Temp. Windchill Dew Point Humidity Wind Precip. Elev Updated Type
                   

Watches & Warnings

Special Statement
Issued: 6:56 PM CST Feb. 8, 2016 – National Weather Service

... Snow showers tonight with slick roads possible...

Snow showers will continue through the night with the greatest
accumulations of 1 to 3 inches expected for the favored lake
effect areas. However... slick roads are possible across much of
the area due to the combination of the snow showers and falling
temperatures into the mid 20s... resulting in the freezing of
earlier melted snow.



756 PM EST Mon Feb 8 2016 /656 PM CST Mon Feb 8 2016/

... Snow showers tonight with slick roads possible...

Snow showers will continue through the night with the greatest
accumulations of 1 to 3 inches expected for the favored lake
effect areas. However... slick roads are possible across much of
the area due to the combination of the snow showers and falling
temperatures into the mid 20s... resulting in the freezing of
earlier melted snow.